Time;durP1;ratioP1;P1;durP2;ratioP2;P2;SDS_P1;SDS_P2;PMS_P1;PMS_P2;Temp;Humidity;BMP_temperature;BMP_pressure;BME280_temperature;BME280_humidity;BME280_pressure;Samples;Min_cycle;Max_cycle;Signal;HPM_P1;HPM_P2
2022/04/25 00:00:51;;;;;;;;;;;8.30;99.90;;;;;;5015394;28;19925;-72
2022/04/25 00:03:16;;;;;;;;;;;8.30;99.90;;;;;;5011671;28;19920;-72
2022/04/25 00:05:42;;;;;;;;;;;8.30;99.90;;;;;;5009532;28;19922;-73
2022/04/25 00:08:07;;;;;;;;;;;8.20;99.90;;;;;;5012905;28;19917;-72
2022/04/25 00:10:33;;;;;;;;;;;8.30;99.90;;;;;;5015478;28;19920;-72
2022/04/25 00:12:59;;;;;;;;;;;8.20;99.90;;;;;;5018043;28;20289;-72
2022/04/25 00:15:27;;;;;;;;;;;8.30;99.90;;;;;;5015075;28;19917;-72
2022/04/25 00:17:52;;;;;;;;;;;8.20;99.90;;;;;;5017613;28;19918;-73
2022/04/25 00:20:18;;;;;;;;;;;8.20;99.90;;;;;;5015047;28;20270;-72
2022/04/25 00:22:45;;;;;;;;;;;8.20;99.90;;;;;;5020655;28;19917;-72
2022/04/25 00:25:10;;;;;;;;;;;8.20;99.90;;;;;;5020667;28;20013;-72
2022/04/25 00:27:36;;;;;;;;;;;8.20;99.90;;;;;;5019009;28;19995;-72
2022/04/25 00:30:01;;;;;;;;;;;8.20;99.90;;;;;;5021725;28;19917;-73
2022/04/25 00:32:27;;;;;;;;;;;8.20;99.90;;;;;;5020603;28;20394;-73
2022/04/25 00:34:52;;;;;;;;;;;8.20;99.90;;;;;;5019971;28;19925;-73
2022/04/25 00:37:18;;;;;;;;;;;8.20;99.90;;;;;;5017934;28;19913;-75
2022/04/25 00:39:43;;;;;;;;;;;8.10;99.90;;;;;;5020139;28;20026;-74
2022/04/25 00:42:09;;;;;;;;;;;8.10;99.90;;;;;;5017424;28;19924;-74
2022/04/25 00:44:34;;;;;;;;;;;8.00;99.90;;;;;;5019649;28;19914;-74
2022/04/25 00:47:00;;;;;;;;;;;7.90;99.90;;;;;;5019627;28;19920;-74
2022/04/25 00:49:25;;;;;;;;;;;7.80;99.90;;;;;;5022931;28;19960;-74
2022/04/25 00:51:51;;;;;;;;;;;7.80;99.90;;;;;;5019445;28;19917;-74
2022/04/25 00:54:23;;;;;;;;;;;7.80;99.90;;;;;;5017955;28;19939;-74
2022/04/25 00:56:49;;;;;;;;;;;7.80;99.90;;;;;;5018780;28;19924;-75
2022/04/25 00:59:15;;;;;;;;;;;7.70;99.90;;;;;;5021105;28;19956;-75
2022/04/25 01:01:40;;;;;;;;;;;7.70;99.90;;;;;;5017223;28;19968;-74
2022/04/25 01:04:06;;;;;;;;;;;7.70;99.90;;;;;;5019136;28;20606;-74
2022/04/25 01:06:32;;;;;;;;;;;7.60;99.90;;;;;;5016958;28;19913;-74
2022/04/25 01:08:57;;;;;;;;;;;7.70;99.90;;;;;;5017838;28;19991;-74
2022/04/25 01:11:23;;;;;;;;;;;7.60;99.90;;;;;;5019189;28;19964;-74
2022/04/25 01:13:49;;;;;;;;;;;7.50;99.90;;;;;;5018597;28;19922;-74
2022/04/25 01:16:15;;;;;;;;;;;7.50;99.90;;;;;;5017207;28;19932;-75
2022/04/25 01:18:40;;;;;;;;;;;7.40;99.90;;;;;;5020458;28;19913;-75
2022/04/25 01:21:08;;;;;;;;;;;7.40;99.90;;;;;;5017358;28;19914;-75
2022/04/25 01:29:02;;;;;;;;;;;7.20;99.90;;;;;;5019571;28;20004;-75
2022/04/25 01:31:27;;;;;;;;;;;7.20;99.90;;;;;;5016755;28;20000;-75
2022/04/25 01:33:53;;;;;;;;;;;7.20;99.90;;;;;;5019495;28;20378;-74
2022/04/25 01:36:22;;;;;;;;;;;7.10;99.90;;;;;;5019175;28;20369;-74
2022/04/25 01:38:48;;;;;;;;;;;7.10;99.90;;;;;;5018867;28;20020;-75
2022/04/25 01:41:13;;;;;;;;;;;7.10;99.90;;;;;;5016359;28;19954;-75
2022/04/25 01:43:39;;;;;;;;;;;7.10;99.90;;;;;;5017921;28;19931;-75
2022/04/25 01:46:04;;;;;;;;;;;7.10;99.90;;;;;;5018130;28;20008;-74
2022/04/25 01:48:30;;;;;;;;;;;7.00;99.90;;;;;;5020004;28;19913;-74
2022/04/25 01:50:56;;;;;;;;;;;7.00;99.90;;;;;;5018746;28;19910;-74
2022/04/25 01:53:21;;;;;;;;;;;7.00;99.90;;;;;;5017688;28;20390;-74
2022/04/25 01:55:47;;;;;;;;;;;7.00;99.90;;;;;;5017302;28;20462;-74
2022/04/25 01:58:12;;;;;;;;;;;7.00;99.90;;;;;;5017954;28;19964;-74
2022/04/25 02:00:38;;;;;;;;;;;7.00;99.90;;;;;;5015977;28;19928;-75
2022/04/25 02:03:03;;;;;;;;;;;6.90;99.90;;;;;;5016482;28;21436;-74
2022/04/25 02:05:28;;;;;;;;;;;6.90;99.90;;;;;;5017674;28;19909;-74
2022/04/25 02:07:54;;;;;;;;;;;6.90;99.90;;;;;;5019262;28;19917;-75
2022/04/25 02:10:19;;;;;;;;;;;6.90;99.90;;;;;;5017499;28;20358;-75
2022/04/25 02:12:45;;;;;;;;;;;6.90;99.90;;;;;;5018239;28;19939;-74
2022/04/25 02:15:13;;;;;;;;;;;7.00;99.90;;;;;;5016552;28;20077;-74
2022/04/25 02:17:44;;;;;;;;;;;7.00;99.90;;;;;;5017160;28;20378;-74
2022/04/25 02:20:10;;;;;;;;;;;7.00;99.90;;;;;;5016995;28;19921;-74
2022/04/25 02:22:36;;;;;;;;;;;7.00;99.90;;;;;;5018210;28;19975;-74
2022/04/25 02:25:01;;;;;;;;;;;7.00;99.90;;;;;;5017683;28;20148;-74
2022/04/25 02:27:27;;;;;;;;;;;6.90;99.90;;;;;;5019133;28;19921;-74
2022/04/25 02:29:57;;;;;;;;;;;6.90;99.90;;;;;;5015206;28;19932;-74
2022/04/25 02:32:23;;;;;;;;;;;6.90;99.90;;;;;;5017052;28;19939;-74
2022/04/25 02:34:50;;;;;;;;;;;6.90;99.90;;;;;;5015180;28;19920;-74
2022/04/25 02:37:15;;;;;;;;;;;6.90;99.90;;;;;;5018155;28;19914;-74
2022/04/25 02:39:41;;;;;;;;;;;6.90;99.90;;;;;;5016953;28;20356;-73
2022/04/25 02:42:07;;;;;;;;;;;6.90;99.90;;;;;;5016220;28;20015;-74
2022/04/25 02:44:32;;;;;;;;;;;6.80;99.90;;;;;;5017257;28;21494;-74
2022/04/25 02:46:58;;;;;;;;;;;6.80;99.90;;;;;;5017035;28;19921;-74
2022/04/25 02:49:23;;;;;;;;;;;6.80;99.90;;;;;;5016982;28;19917;-74
2022/04/25 02:51:48;;;;;;;;;;;6.80;99.90;;;;;;5016627;28;19914;-74
2022/04/25 02:54:14;;;;;;;;;;;6.80;99.90;;;;;;5017906;28;19917;-74
2022/04/25 02:56:39;;;;;;;;;;;6.80;99.90;;;;;;5019038;28;19925;-74
2022/04/25 02:59:06;;;;;;;;;;;6.70;99.90;;;;;;5016016;28;20058;-74
2022/04/25 03:01:32;;;;;;;;;;;6.80;99.90;;;;;;5013859;28;19917;-74
2022/04/25 03:03:57;;;;;;;;;;;6.80;99.90;;;;;;5016544;28;19921;-74
2022/04/25 03:06:23;;;;;;;;;;;6.80;99.90;;;;;;5016620;28;20111;-74
2022/04/25 03:08:48;;;;;;;;;;;6.80;99.90;;;;;;5014215;28;19913;-74
2022/04/25 03:11:14;;;;;;;;;;;6.80;99.90;;;;;;5016673;28;19982;-74
2022/04/25 03:13:40;;;;;;;;;;;6.90;99.90;;;;;;5016662;28;19920;-74
2022/04/25 03:16:06;;;;;;;;;;;6.80;99.90;;;;;;5016866;28;19928;-74
2022/04/25 03:18:32;;;;;;;;;;;6.80;99.90;;;;;;5016535;28;19916;-74
2022/04/25 03:20:57;;;;;;;;;;;6.80;99.90;;;;;;5017031;28;20445;-74
2022/04/25 03:23:23;;;;;;;;;;;6.80;99.90;;;;;;5014557;28;20282;-75
2022/04/25 03:25:49;;;;;;;;;;;6.80;99.90;;;;;;5018925;28;19921;-74
2022/04/25 03:28:15;;;;;;;;;;;6.80;99.90;;;;;;5018101;28;20007;-74
2022/04/25 03:30:41;;;;;;;;;;;6.70;99.90;;;;;;5017535;28;19917;-75
2022/04/25 03:33:08;;;;;;;;;;;6.70;99.90;;;;;;5017322;28;19972;-74
2022/04/25 03:35:34;;;;;;;;;;;6.70;99.90;;;;;;5017615;28;20274;-75
2022/04/25 03:38:00;;;;;;;;;;;6.70;99.90;;;;;;5013472;28;19949;-74
2022/04/25 03:40:25;;;;;;;;;;;6.80;99.90;;;;;;5015602;28;20023;-74
2022/04/25 03:42:53;;;;;;;;;;;6.80;99.90;;;;;;5015360;28;20051;-74
2022/04/25 03:45:18;;;;;;;;;;;6.80;99.90;;;;;;5016310;28;19917;-75
2022/04/25 03:47:44;;;;;;;;;;;6.80;99.90;;;;;;5016702;28;20293;-75
2022/04/25 03:50:11;;;;;;;;;;;6.70;99.90;;;;;;5016221;28;20374;-75
2022/04/25 03:52:37;;;;;;;;;;;6.70;99.90;;;;;;5015722;28;19948;-75
2022/04/25 03:57:51;;;;;;;;;;;6.60;99.90;;;;;;5018398;28;20320;-76
2022/04/25 04:00:17;;;;;;;;;;;6.70;99.90;;;;;;5020402;28;19917;-76
2022/04/25 04:02:43;;;;;;;;;;;6.70;99.90;;;;;;5014445;28;20000;-75
2022/04/25 04:05:08;;;;;;;;;;;6.70;99.90;;;;;;5020688;28;20027;-75
2022/04/25 04:07:34;;;;;;;;;;;6.70;99.90;;;;;;5019220;28;20039;-75
2022/04/25 04:09:59;;;;;;;;;;;6.70;99.90;;;;;;5020045;28;20417;-75
2022/04/25 04:12:30;;;;;;;;;;;6.70;99.90;;;;;;5019799;28;20346;-75
2022/04/25 04:14:56;;;;;;;;;;;6.70;99.90;;;;;;5021370;28;19934;-75
2022/04/25 04:17:22;;;;;;;;;;;6.70;99.90;;;;;;5017842;28;19922;-75
2022/04/25 04:19:48;;;;;;;;;;;6.70;99.90;;;;;;5018332;28;19921;-75
2022/04/25 04:22:13;;;;;;;;;;;6.60;99.90;;;;;;5020761;28;19932;-75
2022/04/25 04:24:39;;;;;;;;;;;6.60;99.90;;;;;;5018049;28;20411;-74
2022/04/25 04:27:06;;;;;;;;;;;6.70;99.90;;;;;;5017553;28;20367;-74
2022/04/25 04:29:32;;;;;;;;;;;6.70;99.90;;;;;;5017220;28;19956;-75
2022/04/25 04:31:58;;;;;;;;;;;6.70;99.90;;;;;;5020967;28;20294;-74
2022/04/25 04:34:24;;;;;;;;;;;6.70;99.90;;;;;;5012942;28;20369;-74
2022/04/25 04:36:49;;;;;;;;;;;6.60;99.90;;;;;;5015634;28;19932;-74
2022/04/25 04:39:15;;;;;;;;;;;6.70;99.90;;;;;;5015620;28;19983;-74
2022/04/25 04:41:40;;;;;;;;;;;6.70;99.90;;;;;;5020250;28;20016;-74
2022/04/25 04:44:06;;;;;;;;;;;6.80;99.90;;;;;;5015888;28;20036;-74
2022/04/25 04:46:31;;;;;;;;;;;6.80;99.90;;;;;;5017134;28;20009;-73
2022/04/25 04:48:57;;;;;;;;;;;6.70;99.90;;;;;;5012664;28;20263;-72
2022/04/25 04:51:23;;;;;;;;;;;6.70;99.90;;;;;;5019242;28;19980;-72
2022/04/25 04:53:48;;;;;;;;;;;6.80;99.90;;;;;;5017575;28;19918;-72
2022/04/25 04:56:14;;;;;;;;;;;6.70;99.90;;;;;;5018649;28;19918;-74
2022/04/25 04:58:39;;;;;;;;;;;6.70;99.90;;;;;;5018135;28;20354;-74
2022/04/25 05:01:04;;;;;;;;;;;6.70;99.90;;;;;;5016500;28;19984;-73
2022/04/25 05:03:31;;;;;;;;;;;6.70;99.90;;;;;;5018941;28;19917;-73
2022/04/25 05:05:56;;;;;;;;;;;6.70;99.90;;;;;;5018722;28;19918;-74
2022/04/25 05:08:22;;;;;;;;;;;6.60;99.90;;;;;;5016260;28;19921;-73
2022/04/25 05:10:48;;;;;;;;;;;6.60;99.90;;;;;;5019464;28;19957;-72
2022/04/25 05:13:15;;;;;;;;;;;6.60;99.90;;;;;;5016793;28;19913;-72
2022/04/25 05:15:40;;;;;;;;;;;6.60;99.90;;;;;;5018142;28;20016;-73
2022/04/25 05:18:06;;;;;;;;;;;6.60;99.90;;;;;;5016107;28;20031;-73
2022/04/25 05:20:31;;;;;;;;;;;6.50;99.90;;;;;;5017125;28;20386;-71
2022/04/25 05:22:57;;;;;;;;;;;6.60;99.90;;;;;;5017141;28;19996;-69
2022/04/25 05:25:23;;;;;;;;;;;6.60;99.90;;;;;;5018461;28;20298;-69
2022/04/25 05:27:49;;;;;;;;;;;6.60;99.90;;;;;;5018694;28;19944;-69
2022/04/25 05:30:15;;;;;;;;;;;6.60;99.90;;;;;;5015966;28;19927;-68
2022/04/25 05:32:41;;;;;;;;;;;6.50;99.90;;;;;;5017897;28;20000;-69
2022/04/25 05:35:07;;;;;;;;;;;6.50;99.90;;;;;;5019822;28;20369;-68
2022/04/25 05:37:32;;;;;;;;;;;6.50;99.90;;;;;;5018012;28;19920;-69
2022/04/25 05:39:58;;;;;;;;;;;6.50;99.90;;;;;;5019369;28;20365;-69
2022/04/25 05:42:23;;;;;;;;;;;6.50;99.90;;;;;;5020122;28;20361;-69
2022/04/25 05:44:49;;;;;;;;;;;6.50;99.90;;;;;;5018868;28;19963;-68
2022/04/25 05:47:14;;;;;;;;;;;6.50;99.90;;;;;;5019387;28;19948;-68
2022/04/25 05:52:24;;;;;;;;;;;6.60;99.90;;;;;;5016377;28;19940;-78
2022/04/25 05:54:49;;;;;;;;;;;6.50;99.90;;;;;;5016429;28;19942;-77
2022/04/25 05:57:15;;;;;;;;;;;6.50;99.90;;;;;;5018519;28;19959;-77
2022/04/25 05:59:40;;;;;;;;;;;6.60;99.90;;;;;;5020645;28;19920;-84
2022/04/25 06:02:07;;;;;;;;;;;6.60;99.90;;;;;;5018398;28;19966;-84
2022/04/25 06:04:32;;;;;;;;;;;6.70;99.90;;;;;;5020160;28;20003;-86
2022/04/25 06:06:59;;;;;;;;;;;6.60;99.90;;;;;;5017886;28;20339;-80
2022/04/25 06:09:26;;;;;;;;;;;6.60;99.90;;;;;;5019486;28;19909;-77
2022/04/25 06:11:52;;;;;;;;;;;6.60;99.90;;;;;;5017892;28;19996;-75
2022/04/25 06:14:18;;;;;;;;;;;6.60;99.90;;;;;;5016640;28;20295;-76
2022/04/25 06:16:43;;;;;;;;;;;6.60;99.90;;;;;;5018148;28;20020;-76
2022/04/25 06:19:10;;;;;;;;;;;6.70;99.90;;;;;;5017752;28;19922;-77
2022/04/25 06:21:35;;;;;;;;;;;6.70;99.90;;;;;;5017581;28;19917;-76
2022/04/25 06:24:01;;;;;;;;;;;6.70;99.90;;;;;;5017091;28;20004;-77
2022/04/25 06:26:27;;;;;;;;;;;6.80;99.90;;;;;;5017770;28;20251;-75
2022/04/25 06:28:53;;;;;;;;;;;6.90;99.90;;;;;;5015300;28;19923;-78
2022/04/25 06:31:22;;;;;;;;;;;6.90;99.90;;;;;;5015975;28;20301;-78
2022/04/25 06:33:48;;;;;;;;;;;6.80;99.90;;;;;;5017627;28;19914;-78
2022/04/25 06:36:13;;;;;;;;;;;6.80;99.90;;;;;;5015798;28;19920;-79
2022/04/25 06:38:39;;;;;;;;;;;6.70;99.90;;;;;;5017588;28;20390;-77
2022/04/25 06:41:04;;;;;;;;;;;6.70;99.90;;;;;;5015728;28;20355;-74
2022/04/25 06:43:31;;;;;;;;;;;6.70;99.90;;;;;;5017614;28;19935;-73
2022/04/25 06:45:57;;;;;;;;;;;6.80;99.90;;;;;;5012981;28;19919;-77
2022/04/25 06:48:22;;;;;;;;;;;6.90;99.90;;;;;;5017628;28;19921;-79
2022/04/25 06:50:48;;;;;;;;;;;6.90;99.90;;;;;;5015484;28;19921;-74
2022/04/25 06:53:14;;;;;;;;;;;7.00;99.90;;;;;;5017263;28;19968;-74
2022/04/25 06:55:40;;;;;;;;;;;7.00;99.90;;;;;;5017670;28;19922;-80
2022/04/25 06:58:06;;;;;;;;;;;7.00;99.90;;;;;;5016451;28;20412;-79
2022/04/25 07:00:32;;;;;;;;;;;7.00;99.90;;;;;;5016021;28;19925;-78
2022/04/25 07:02:57;;;;;;;;;;;7.00;99.90;;;;;;5015202;28;20283;-81
2022/04/25 07:05:24;;;;;;;;;;;7.10;99.90;;;;;;5018161;28;20004;-83
2022/04/25 07:07:50;;;;;;;;;;;7.10;99.90;;;;;;5015363;28;20374;-74
2022/04/25 07:10:15;;;;;;;;;;;7.20;99.90;;;;;;5017489;28;20011;-73
2022/04/25 07:12:42;;;;;;;;;;;7.30;99.90;;;;;;5016829;28;19917;-74
2022/04/25 07:15:08;;;;;;;;;;;7.30;99.90;;;;;;5015711;28;19924;-73
2022/04/25 07:17:33;;;;;;;;;;;7.30;99.90;;;;;;5015658;28;19940;-74
2022/04/25 07:19:59;;;;;;;;;;;7.30;99.90;;;;;;5015772;28;19917;-72
2022/04/25 07:30:37;;;;;;;;;;;7.20;99.90;;;;;;5016063;28;19932;-73
2022/04/25 07:33:02;;;;;;;;;;;7.20;99.90;;;;;;5017767;28;19913;-76
2022/04/25 07:35:28;;;;;;;;;;;7.20;99.90;;;;;;5014923;28;20278;-74
2022/04/25 07:37:55;;;;;;;;;;;7.30;99.90;;;;;;5016247;28;19925;-77
2022/04/25 07:40:21;;;;;;;;;;;7.30;99.90;;;;;;5014563;28;19917;-78
2022/04/25 07:42:47;;;;;;;;;;;7.30;99.90;;;;;;5018023;28;19921;-77
2022/04/25 07:45:12;;;;;;;;;;;7.30;99.90;;;;;;5016129;28;19917;-77
2022/04/25 07:47:42;;;;;;;;;;;7.30;99.90;;;;;;5016860;28;20304;-76
2022/04/25 07:50:11;;;;;;;;;;;7.40;99.90;;;;;;5013266;28;19960;-73
2022/04/25 07:52:37;;;;;;;;;;;7.40;99.90;;;;;;5014745;28;19924;-72
2022/04/25 07:55:03;;;;;;;;;;;7.50;99.90;;;;;;5015812;28;20298;-73
2022/04/25 07:57:28;;;;;;;;;;;7.50;99.90;;;;;;5017725;28;19932;-73
2022/04/25 07:59:54;;;;;;;;;;;7.50;99.90;;;;;;5016492;28;20380;-75
2022/04/25 08:02:20;;;;;;;;;;;7.50;99.90;;;;;;5016524;28;19921;-71
2022/04/25 08:04:45;;;;;;;;;;;7.50;99.90;;;;;;5016547;28;19913;-72
2022/04/25 08:07:12;;;;;;;;;;;7.40;99.90;;;;;;5015519;28;19917;-75
2022/04/25 08:09:37;;;;;;;;;;;7.40;99.90;;;;;;5018513;28;19922;-71
2022/04/25 08:20:15;;;;;;;;;;;7.50;99.90;;;;;;5016326;28;19924;-71
2022/04/25 08:22:41;;;;;;;;;;;7.60;99.90;;;;;;5015671;28;19913;-75
2022/04/25 08:25:08;;;;;;;;;;;7.60;99.90;;;;;;5015765;28;19924;-71
2022/04/25 08:27:34;;;;;;;;;;;7.60;99.90;;;;;;5015105;28;20291;-73
2022/04/25 08:29:59;;;;;;;;;;;7.70;99.90;;;;;;5012417;28;19917;-72
2022/04/25 08:32:25;;;;;;;;;;;7.70;99.90;;;;;;5015018;28;19921;-73
2022/04/25 08:34:50;;;;;;;;;;;7.60;99.90;;;;;;5014908;28;19957;-75
2022/04/25 08:37:16;;;;;;;;;;;7.70;99.90;;;;;;5015575;28;19913;-75
2022/04/25 08:39:41;;;;;;;;;;;7.80;99.90;;;;;;5016733;28;19917;-75
2022/04/25 08:42:07;;;;;;;;;;;7.80;99.90;;;;;;5014795;28;19964;-73
2022/04/25 08:44:33;;;;;;;;;;;7.90;99.90;;;;;;5018425;28;19995;-73
2022/04/25 08:46:59;;;;;;;;;;;7.80;99.90;;;;;;5020462;28;20378;-72
2022/04/25 08:49:25;;;;;;;;;;;7.90;99.90;;;;;;5019213;28;20051;-75
2022/04/25 08:51:58;;;;;;;;;;;7.90;99.90;;;;;;5016608;28;20116;-74
2022/04/25 08:54:33;;;;;;;;;;;7.80;99.90;;;;;;5016300;28;19936;-74
2022/04/25 08:57:01;;;;;;;;;;;7.80;99.90;;;;;;5016186;28;19917;-73
2022/04/25 08:59:27;;;;;;;;;;;7.80;99.90;;;;;;5015799;28;20355;-78
2022/04/25 09:01:53;;;;;;;;;;;7.80;99.90;;;;;;5019183;28;19928;-75
2022/04/25 09:04:19;;;;;;;;;;;7.70;99.90;;;;;;5016986;28;19925;-75
2022/04/25 09:06:45;;;;;;;;;;;7.80;99.90;;;;;;5019305;28;19922;-73
2022/04/25 09:09:11;;;;;;;;;;;7.80;99.90;;;;;;5018858;28;19963;-73
2022/04/25 09:14:20;;;;;;;;;;;7.90;99.90;;;;;;5016721;28;19956;-71
2022/04/25 09:16:46;;;;;;;;;;;8.00;99.90;;;;;;5018567;28;20366;-69
2022/04/25 09:19:12;;;;;;;;;;;8.00;99.90;;;;;;5020219;28;19970;-70
2022/04/25 09:21:41;;;;;;;;;;;7.90;99.90;;;;;;5019749;28;19966;-70
2022/04/25 09:24:26;;;;;;;;;;;7.90;99.90;;;;;;5019406;28;19914;-70
2022/04/25 09:27:07;;;;;;;;;;;7.90;99.90;;;;;;5019530;28;19920;-70
2022/04/25 09:29:33;;;;;;;;;;;7.90;99.90;;;;;;5017303;28;19952;-69
2022/04/25 09:31:59;;;;;;;;;;;7.90;99.90;;;;;;5016012;28;19928;-69
2022/04/25 09:37:09;;;;;;;;;;;7.90;99.90;;;;;;5019530;28;19967;-71
2022/04/25 09:39:34;;;;;;;;;;;7.90;99.90;;;;;;5017554;28;19917;-70
2022/04/25 09:42:00;;;;;;;;;;;7.90;99.90;;;;;;5019079;28;19971;-71
2022/04/25 09:44:27;;;;;;;;;;;8.00;99.90;;;;;;5017276;28;19913;-69
2022/04/25 09:46:52;;;;;;;;;;;8.10;99.90;;;;;;5015862;28;19925;-70
2022/04/25 09:49:19;;;;;;;;;;;8.30;99.90;;;;;;5018400;28;19917;-70
2022/04/25 09:51:58;;;;;;;;;;;8.40;99.90;;;;;;5018946;28;20024;-70
2022/04/25 09:54:24;;;;;;;;;;;8.50;99.90;;;;;;5015910;28;19937;-69
2022/04/25 09:56:51;;;;;;;;;;;8.50;99.90;;;;;;5017922;28;19913;-69
2022/04/25 09:59:16;;;;;;;;;;;8.50;99.90;;;;;;5017119;28;19913;-69
2022/04/25 10:01:43;;;;;;;;;;;8.40;99.90;;;;;;5018592;28;20369;-70
2022/04/25 10:04:27;;;;;;;;;;;8.40;99.90;;;;;;5015643;28;19955;-70
2022/04/25 10:06:54;;;;;;;;;;;8.40;99.90;;;;;;5015153;28;19921;-70
2022/04/25 10:09:20;;;;;;;;;;;8.40;99.90;;;;;;5014104;28;19921;-70
2022/04/25 10:11:46;;;;;;;;;;;8.40;99.90;;;;;;5018378;28;20379;-69
2022/04/25 10:14:12;;;;;;;;;;;8.50;99.90;;;;;;5017947;28;19913;-70
2022/04/25 10:16:37;;;;;;;;;;;8.50;99.90;;;;;;5019812;28;19968;-70
2022/04/25 10:19:04;;;;;;;;;;;8.60;99.90;;;;;;5018030;28;19918;-71
2022/04/25 10:21:30;;;;;;;;;;;8.60;99.90;;;;;;5020065;28;19917;-70
2022/04/25 10:23:57;;;;;;;;;;;8.70;99.90;;;;;;5019219;28;20108;-70
2022/04/25 10:26:29;;;;;;;;;;;8.70;99.90;;;;;;5019220;28;19921;-70
2022/04/25 10:29:02;;;;;;;;;;;8.80;99.90;;;;;;5018089;28;19913;-70
2022/04/25 10:31:30;;;;;;;;;;;8.80;99.90;;;;;;5018828;28;20314;-70
2022/04/25 10:33:58;;;;;;;;;;;8.90;99.90;;;;;;5017984;28;20397;-70
2022/04/25 10:36:38;;;;;;;;;;;9.10;99.90;;;;;;5017403;28;20333;-70
2022/04/25 10:39:11;;;;;;;;;;;9.20;99.90;;;;;;5017269;28;19917;-70
2022/04/25 10:44:20;;;;;;;;;;;9.40;99.90;;;;;;5019478;28;20289;-71
2022/04/25 10:47:04;;;;;;;;;;;9.40;99.90;;;;;;5019437;28;19914;-71
2022/04/25 10:49:46;;;;;;;;;;;9.40;99.90;;;;;;5018816;28;20297;-70
2022/04/25 10:52:30;;;;;;;;;;;9.40;99.90;;;;;;5016841;28;19928;-70
2022/04/25 10:55:32;;;;;;;;;;;9.50;99.90;;;;;;5015303;28;20421;-68
2022/04/25 10:58:01;;;;;;;;;;;9.50;99.90;;;;;;5014278;28;20144;-71
2022/04/25 11:00:44;;;;;;;;;;;9.50;99.90;;;;;;5015887;28;19921;-70
2022/04/25 11:03:14;;;;;;;;;;;9.40;99.90;;;;;;5014920;28;19921;-70
2022/04/25 11:05:40;;;;;;;;;;;9.40;99.90;;;;;;5017273;28;19959;-69
2022/04/25 11:08:18;;;;;;;;;;;9.30;99.90;;;;;;5014057;28;19922;-70
2022/04/25 11:10:45;;;;;;;;;;;9.40;99.90;;;;;;5016593;28;20046;-73
2022/04/25 11:13:12;;;;;;;;;;;9.60;99.90;;;;;;5016054;28;19913;-72
2022/04/25 11:15:39;;;;;;;;;;;9.70;99.90;;;;;;5018363;28;19914;-72
2022/04/25 11:18:20;;;;;;;;;;;9.80;99.90;;;;;;5018115;28;19917;-70
2022/04/25 11:20:58;;;;;;;;;;;9.90;99.90;;;;;;5018593;28;19913;-71
2022/04/25 11:23:29;;;;;;;;;;;10.10;99.90;;;;;;5018845;28;19947;-70
2022/04/25 11:25:59;;;;;;;;;;;10.20;99.90;;;;;;5018025;28;20295;-70
2022/04/25 11:28:25;;;;;;;;;;;10.20;99.90;;;;;;5018582;28;19913;-72
2022/04/25 11:31:10;;;;;;;;;;;10.10;99.90;;;;;;5018554;28;19913;-71
2022/04/25 11:33:48;;;;;;;;;;;10.20;99.90;;;;;;5018754;28;19913;-70
2022/04/25 11:36:14;;;;;;;;;;;10.20;99.90;;;;;;5016301;28;19933;-71
2022/04/25 11:41:31;;;;;;;;;;;10.30;99.90;;;;;;5017405;28;19924;-70
2022/04/25 11:43:57;;;;;;;;;;;10.40;99.90;;;;;;5016059;28;19952;-68
2022/04/25 11:46:27;;;;;;;;;;;10.40;99.90;;;;;;5014902;28;19917;-70
2022/04/25 11:48:52;;;;;;;;;;;10.40;99.90;;;;;;5017236;28;19920;-69
2022/04/25 11:51:22;;;;;;;;;;;10.40;99.90;;;;;;5015380;28;19913;-70
2022/04/25 11:53:47;;;;;;;;;;;10.30;99.90;;;;;;5015856;28;19995;-70
2022/04/25 11:56:16;;;;;;;;;;;10.40;99.90;;;;;;5015766;28;19921;-70
2022/04/25 11:58:41;;;;;;;;;;;10.50;99.90;;;;;;5014766;28;19913;-70
2022/04/25 12:01:09;;;;;;;;;;;10.50;99.90;;;;;;5015160;28;20301;-69
2022/04/25 12:03:36;;;;;;;;;;;10.50;99.90;;;;;;5016029;28;20016;-70
2022/04/25 12:06:12;;;;;;;;;;;10.60;99.90;;;;;;5016230;28;19909;-70
2022/04/25 12:17:00;;;;;;;;;;;11.10;99.90;;;;;;5015952;28;19921;-70
2022/04/25 12:19:25;;;;;;;;;;;11.10;99.90;;;;;;5019868;28;19961;-70
2022/04/25 12:22:01;;;;;;;;;;;11.10;99.90;;;;;;5021258;28;19967;-70
2022/04/25 12:24:26;;;;;;;;;;;11.10;99.90;;;;;;5018548;28;19940;-71
2022/04/25 12:26:51;;;;;;;;;;;11.10;99.90;;;;;;5019824;28;19917;-71
2022/04/25 12:29:17;;;;;;;;;;;11.10;99.90;;;;;;5021461;28;20286;-70
2022/04/25 12:31:49;;;;;;;;;;;11.20;99.90;;;;;;5021185;28;20389;-70
2022/04/25 12:34:16;;;;;;;;;;;11.30;99.90;;;;;;5018980;28;19913;-68
2022/04/25 12:36:57;;;;;;;;;;;11.40;99.90;;;;;;5020056;28;19913;-69
2022/04/25 12:39:24;;;;;;;;;;;11.50;99.90;;;;;;5019780;28;19949;-69
2022/04/25 12:41:53;;;;;;;;;;;11.50;99.90;;;;;;5018296;28;19956;-71
2022/04/25 12:44:19;;;;;;;;;;;11.60;99.90;;;;;;5020733;28;19923;-70
2022/04/25 12:46:52;;;;;;;;;;;11.70;99.90;;;;;;5018607;28;19913;-70
2022/04/25 12:49:18;;;;;;;;;;;11.80;99.90;;;;;;5020321;28;19976;-70
2022/04/25 12:51:45;;;;;;;;;;;11.80;99.90;;;;;;5019797;28;20414;-70
2022/04/25 12:54:40;;;;;;;;;;;12.00;99.90;;;;;;5018072;28;19917;-71
2022/04/25 12:57:06;;;;;;;;;;;12.00;99.90;;;;;;4989298;28;19917;-70
2022/04/25 12:59:34;;;;;;;;;;;12.10;99.90;;;;;;5020339;28;19920;-71
2022/04/25 13:02:07;;;;;;;;;;;12.20;99.90;;;;;;5018725;28;20014;-70
2022/04/25 13:04:48;;;;;;;;;;;12.30;99.90;;;;;;5018149;28;19913;-70
2022/04/25 13:07:13;;;;;;;;;;;12.40;99.90;;;;;;5018851;28;20293;-68
2022/04/25 13:09:39;;;;;;;;;;;12.40;99.90;;;;;;4987368;28;19922;-69
2022/04/25 13:12:11;;;;;;;;;;;12.30;99.90;;;;;;5018491;28;19922;-69
2022/04/25 13:14:37;;;;;;;;;;;12.40;99.90;;;;;;5020214;28;20356;-70
2022/04/25 13:17:02;;;;;;;;;;;12.60;99.90;;;;;;5018119;28;20028;-70
2022/04/25 13:19:29;;;;;;;;;;;12.70;99.90;;;;;;5018187;28;20486;-70
2022/04/25 13:21:54;;;;;;;;;;;12.90;99.90;;;;;;5018206;28;19924;-70
2022/04/25 13:24:19;;;;;;;;;;;13.00;99.80;;;;;;5019452;28;19996;-70
2022/04/25 13:26:45;;;;;;;;;;;13.10;99.90;;;;;;5019617;28;19960;-69
2022/04/25 13:29:10;;;;;;;;;;;13.30;99.60;;;;;;5019493;28;20610;-71
2022/04/25 13:31:36;;;;;;;;;;;13.40;99.70;;;;;;5018126;28;20396;-71
2022/04/25 13:34:01;;;;;;;;;;;13.50;99.40;;;;;;5020801;28;20346;-71
2022/04/25 13:36:27;;;;;;;;;;;13.70;99.20;;;;;;5018117;28;19921;-71
2022/04/25 13:38:52;;;;;;;;;;;13.70;99.60;;;;;;5020765;28;19913;-73
2022/04/25 13:41:19;;;;;;;;;;;13.50;98.50;;;;;;5019515;28;20369;-72
2022/04/25 13:43:45;;;;;;;;;;;13.40;99.20;;;;;;5020003;28;20285;-72
2022/04/25 13:46:10;;;;;;;;;;;13.40;98.90;;;;;;5016434;28;19917;-72
2022/04/25 13:48:36;;;;;;;;;;;13.50;98.60;;;;;;5019240;28;20000;-73
2022/04/25 13:51:01;;;;;;;;;;;13.50;98.60;;;;;;5019256;28;19917;-71
2022/04/25 13:53:27;;;;;;;;;;;13.60;98.60;;;;;;5017111;28;19932;-72
2022/04/25 13:55:52;;;;;;;;;;;13.70;98.70;;;;;;5017821;28;19917;-71
2022/04/25 13:58:18;;;;;;;;;;;13.70;97.60;;;;;;5016681;28;20358;-72
2022/04/25 14:00:43;;;;;;;;;;;13.60;97.80;;;;;;5019398;28;20336;-72
2022/04/25 14:03:09;;;;;;;;;;;13.50;97.70;;;;;;5017229;28;19917;-70
2022/04/25 14:05:42;;;;;;;;;;;13.50;97.30;;;;;;5017137;28;19913;-69
2022/04/25 14:08:08;;;;;;;;;;;13.30;98.00;;;;;;5016961;28;19918;-69
2022/04/25 14:10:36;;;;;;;;;;;13.30;98.20;;;;;;5012720;28;20366;-69
2022/04/25 14:13:02;;;;;;;;;;;13.30;98.10;;;;;;5016967;28;20008;-69
2022/04/25 14:15:28;;;;;;;;;;;13.30;97.70;;;;;;5020025;28;19940;-69
2022/04/25 14:17:53;;;;;;;;;;;13.30;97.90;;;;;;5017652;28;20193;-69
2022/04/25 14:20:19;;;;;;;;;;;13.30;97.90;;;;;;5019941;28;19964;-68
2022/04/25 14:22:44;;;;;;;;;;;13.30;97.90;;;;;;5017398;28;19913;-69
2022/04/25 14:25:10;;;;;;;;;;;13.40;97.70;;;;;;5015099;28;19972;-68
2022/04/25 14:27:38;;;;;;;;;;;13.40;98.30;;;;;;5016455;28;20275;-68
2022/04/25 14:30:09;;;;;;;;;;;13.40;97.80;;;;;;5017415;28;20529;-68
2022/04/25 14:32:34;;;;;;;;;;;13.60;97.70;;;;;;5014980;28;20399;-69
2022/04/25 14:35:00;;;;;;;;;;;13.70;97.30;;;;;;5019552;28;19921;-68
2022/04/25 14:37:25;;;;;;;;;;;13.70;96.20;;;;;;5016597;28;19925;-70
2022/04/25 14:39:51;;;;;;;;;;;13.60;96.30;;;;;;5015320;28;19972;-69
2022/04/25 14:42:16;;;;;;;;;;;13.50;96.70;;;;;;5014600;28;19983;-69
2022/04/25 14:44:42;;;;;;;;;;;13.50;97.00;;;;;;5019400;28;19909;-69
2022/04/25 14:47:08;;;;;;;;;;;13.50;97.60;;;;;;5014284;28;19943;-68
2022/04/25 14:55:03;;;;;;;;;;;14.00;97.20;;;;;;5015239;28;19964;-69
2022/04/25 14:57:28;;;;;;;;;;;14.20;97.60;;;;;;5016802;28;20012;-69
2022/04/25 14:59:54;;;;;;;;;;;14.40;97.40;;;;;;5015628;28;20305;-68
2022/04/25 15:02:19;;;;;;;;;;;14.40;96.80;;;;;;5015364;28;20015;-69
2022/04/25 15:04:44;;;;;;;;;;;14.30;96.60;;;;;;5015929;28;19925;-69
2022/04/25 15:07:10;;;;;;;;;;;14.40;96.60;;;;;;5018674;28;20024;-69
2022/04/25 15:09:35;;;;;;;;;;;14.60;96.70;;;;;;5012519;28;19971;-69
2022/04/25 15:12:01;;;;;;;;;;;14.80;97.10;;;;;;5012879;28;19960;-69
2022/04/25 15:14:26;;;;;;;;;;;14.90;97.00;;;;;;5018226;28;19921;-70
2022/04/25 15:16:52;;;;;;;;;;;15.00;96.30;;;;;;5017303;28;20354;-69